Latest Weather Observations for Sydney Olympic Park

IDN60901

Issued at 5:51 pm EDT Thursday 23 February 2017 (issued every 10 minutes, with the page automatically refreshed every 10 minutes)

About weather observations | Map of Sydney area stations | Latest observations for Sydney area | Other Formats
Station Details ID: 066212 Name: SYDNEY OLYMPIC PARK AWS (ARCHERY CENTRE) Lat: -33.83 Lon: 151.07 Height: 4.0 m
Data from the previous 72 hours. | See also: Recent months at Sydney Olympic Park
Date/Time
EDT
Temp
°C
App
Temp
°C
Dew
Point
°C
Rel
Hum
%
Delta-T
°C
Wind Press
QNH
hPa
Press
MSL
hPa
Rain since
9am
mm
Dir  Spd
km/h
Gust
km/h
Spd
kts
Gust
kts
23/05:30pm 28.3 27.9 18.1 54 6.5 E 17 26 9 14 - - 0.0
23/05:00pm 28.9 28.4 17.7 50 7.1 E 17 28 9 15 - - 0.0
23/04:30pm 29.3 28.7 18.4 51 7.0 E 19 26 10 14 - - 0.0
23/04:00pm 29.8 29.5 18.3 50 7.4 E 17 28 9 15 - - 0.0
23/03:30pm 29.7 29.5 18.5 51 7.2 E 17 30 9 16 - - 0.0
23/03:00pm 29.7 29.1 18.5 51 7.2 E 19 28 10 15 - - 0.0
23/02:30pm 29.8 28.9 18.3 50 7.4 ESE 20 28 11 15 - - 0.0
23/02:00pm 29.8 29.3 18.6 51 7.2 ESE 19 28 10 15 - - 0.0
23/01:30pm 29.8 29.9 19.2 53 6.9 SE 17 24 9 13 - - 0.0
23/01:00pm 29.5 30.1 19.5 55 6.5 ESE 15 22 8 12 - - 0.0
23/12:30pm 30.0 31.6 19.1 52 7.1 E 9 15 5 8 - - 0.0
23/12:00pm 29.2 30.5 17.1 48 7.6 E 6 13 3 7 - - 0.0
23/11:30am 28.5 30.2 18.0 53 6.7 ENE 6 9 3 5 - - 0.0
23/11:00am 27.3 28.6 17.5 55 6.2 ENE 7 13 4 7 - - 0.0
23/10:30am 27.0 29.0 19.1 62 5.1 E 7 13 4 7 - - 0.0
23/10:00am 25.7 27.1 17.9 62 4.9 E 7 11 4 6 - - 0.0
23/09:30am 24.6 25.4 17.3 64 4.5 N 9 13 5 7 - - 0.0
23/09:00am 23.7 24.5 17.4 68 3.9 NNE 9 15 5 8 - - 0.0
23/08:30am 22.4 24.5 17.1 72 3.3 ESE 2 6 1 3 - - 0.0
23/08:00am 21.0 23.6 17.4 80 2.2 CALM 0 6 0 3 - - 0.0
23/07:30am 19.9 22.7 18.0 89 1.2 CALM 0 6 0 3 - - 0.0
23/07:00am 19.0 21.8 18.0 94 0.6 CALM 0 0 0 0 - - 0.0
23/06:30am 18.9 21.4 17.2 90 1.0 CALM 0 0 0 0 - - 0.0
23/06:00am 19.4 21.9 17.2 87 1.3 CALM 0 0 0 0 - - 0.0
23/05:30am 19.9 22.1 17.5 86 1.5 NNE 2 7 1 4 - - 0.0
23/05:00am 19.4 21.9 17.2 87 1.3 CALM 0 0 0 0 - - 0.0
23/04:30am 20.0 21.2 16.8 82 1.9 N 6 7 3 4 - - 0.0
23/04:00am 20.5 22.8 16.7 79 2.3 CALM 0 4 0 2 - - 0.0
23/03:30am 21.0 22.0 16.4 75 2.8 NE 6 9 3 5 - - 0.0
23/03:00am 21.6 22.2 16.8 74 2.9 NE 9 15 5 8 - - 0.0
23/02:30am 21.5 22.9 16.5 73 3.0 ENE 4 11 2 6 - - 0.0
23/02:00am 22.0 23.1 16.7 72 3.2 ENE 6 13 3 7 - - 0.0
23/01:30am 22.2 23.2 16.9 72 3.2 ENE 7 13 4 7 - - 0.0
23/01:00am 22.1 23.7 16.8 72 3.2 NE 4 9 2 5 - - 0.0
23/12:30am 21.9 23.8 16.6 72 3.2 NNE 2 9 1 5 - - 0.0
23/12:00am 22.3 24.0 16.3 69 3.6 ENE 2 7 1 4 - - 0.0
 
Date/Time
EDT
Temp
°C
App
Temp
°C
Dew
Point
°C
Rel
Hum
%
Delta-T
°C
Wind Press
QNH
hPa
Press
MSL
hPa
Rain since
9am
mm
Dir  Spd
km/h
Gust
km/h
Spd
kts
Gust
kts
22/11:30pm 22.5 23.3 16.3 68 3.8 N 7 11 4 6 - - 0.0
22/11:00pm 23.0 23.8 16.3 66 4.1 NNE 7 15 4 8 - - 0.0
22/10:30pm 23.2 24.3 16.5 66 4.1 NE 6 13 3 7 - - 0.0
22/10:00pm 23.3 23.8 16.6 66 4.1 NE 9 20 5 11 - - 0.0
22/09:30pm 23.6 23.4 16.6 65 4.3 NE 13 22 7 12 - - 0.0
22/09:00pm 23.8 23.9 16.6 64 4.4 NE 11 26 6 14 - - 0.0
22/08:30pm 23.9 24.5 16.9 65 4.3 NE 9 19 5 10 - - 0.0
22/08:00pm 24.2 23.7 17.0 64 4.4 NE 15 28 8 15 - - 0.0
22/07:30pm 24.6 23.7 16.8 62 4.8 NE 17 30 9 16 - - 0.0
22/07:00pm 25.2 23.7 16.4 58 5.4 NE 19 33 10 18 - - 0.0
22/06:30pm 25.8 24.6 16.1 55 5.9 NE 17 33 9 18 - - 0.0
22/06:00pm 26.4 25.6 16.1 53 6.3 NE 15 32 8 17 - - 0.0
22/05:30pm 26.9 26.1 16.2 52 6.6 ENE 15 28 8 15 - - 0.0
22/05:00pm 27.0 25.7 15.7 50 6.9 NE 17 33 9 18 - - 0.0
22/04:30pm 27.1 25.2 15.8 50 6.9 NE 20 32 11 17 - - 0.0
22/04:00pm 28.2 26.8 16.5 49 7.3 ENE 19 30 10 16 - - 0.0
22/03:30pm 28.2 27.0 17.1 51 7.0 NE 19 35 10 19 - - 0.0
22/03:00pm 27.7 26.0 16.3 49 7.0 E 20 35 11 19 - - 0.0
22/02:30pm 27.9 26.7 16.2 49 7.2 ENE 17 26 9 14 - - 0.0
22/02:00pm 28.2 27.2 16.5 49 7.3 ENE 17 35 9 19 - - 0.0
22/01:30pm 28.1 27.0 16.4 49 7.3 NE 17 26 9 14 - - 0.0
22/01:00pm 28.2 27.5 16.5 49 7.3 ENE 15 24 8 13 - - 0.0
22/12:30pm 27.5 27.4 16.1 49 7.0 ENE 11 20 6 11 - - 0.0
22/12:00pm 28.4 28.4 16.3 47 7.5 NNE 11 19 6 10 - - 0.0
22/11:30am 27.0 26.8 15.7 50 6.9 N 11 19 6 10 - - 0.0
22/11:00am 26.7 25.6 16.3 53 6.4 N 17 28 9 15 - - 0.0
22/10:30am 26.8 26.6 16.7 54 6.3 NNE 13 24 7 13 - - 0.0
22/10:00am 25.9 25.3 16.7 57 5.7 NNE 15 26 8 14 - - 0.0
22/09:30am 24.6 23.7 15.8 58 5.3 NNE 15 26 8 14 - - 0.0
22/09:00am 23.2 24.7 16.7 67 4.0 NNW 4 9 2 5 - - 0.0
22/08:30am 21.7 24.5 17.9 79 2.4 CALM 0 7 0 4 - - 0.0
22/08:00am 20.4 23.1 17.8 85 1.6 CALM 0 0 0 0 - - 0.0
22/07:30am 18.8 21.5 17.8 94 0.6 CALM 0 0 0 0 - - 0.0
22/07:00am 17.8 20.4 17.5 98 0.2 CALM 0 0 0 0 - - 0.0
22/06:30am 17.6 20.0 17.0 96 0.4 CALM 0 0 0 0 - - 0.0
22/06:00am 17.7 20.1 17.1 96 0.4 CALM 0 0 0 0 - - 0.0
22/05:30am 17.9 20.4 17.3 96 0.4 CALM 0 0 0 0 - - 0.0
22/05:00am 18.0 20.5 17.2 95 0.5 CALM 0 0 0 0 - - 0.0
22/04:30am 18.1 20.6 17.3 95 0.5 CALM 0 0 0 0 - - 0.0
22/04:00am 18.2 20.8 17.4 95 0.5 CALM 0 0 0 0 - - 0.0
22/03:30am 18.2 20.6 17.0 93 0.7 CALM 0 0 0 0 - - 0.0
22/03:00am 18.4 20.8 16.9 91 0.9 CALM 0 0 0 0 - - 0.0
22/02:30am 18.5 20.7 16.5 88 1.2 CALM 0 0 0 0 - - 0.0
22/02:00am 18.7 20.8 16.3 86 1.4 CALM 0 0 0 0 - - 0.0
22/01:30am 19.0 21.0 15.9 82 1.8 CALM 0 0 0 0 - - 0.0
22/01:00am 19.3 21.1 15.4 78 2.3 CALM 0 0 0 0 - - 0.0
22/12:30am 20.1 21.8 15.3 74 2.8 CALM 0 0 0 0 - - 0.0
22/12:00am 21.2 23.0 15.5 70 3.4 CALM 0 4 0 2 - - 0.0
 
Date/Time
EDT
Temp
°C
App
Temp
°C
Dew
Point
°C
Rel
Hum
%
Delta-T
°C
Wind Press
QNH
hPa
Press
MSL
hPa
Rain since
9am
mm
Dir  Spd
km/h
Gust
km/h
Spd
kts
Gust
kts
21/11:30pm 22.2 22.7 15.1 64 4.2 NNE 6 15 3 8 - - 0.0
21/11:00pm 22.6 22.6 15.2 63 4.4 NE 9 19 5 10 - - 0.0
21/10:30pm 22.8 22.3 14.9 61 4.7 NE 11 19 6 10 - - 0.0
21/10:00pm 22.8 21.9 14.9 61 4.7 NE 13 20 7 11 - - 0.0
21/09:30pm 23.3 23.1 15.6 62 4.6 NE 11 22 6 12 - - 0.0
21/09:00pm 23.6 23.5 16.1 62 4.6 NE 11 20 6 11 - - 0.0
21/08:30pm 23.8 23.8 15.3 59 5.1 NE 9 15 5 8 - - 0.0
21/08:00pm 24.0 23.5 15.0 57 5.4 NE 11 19 6 10 - - 0.0
21/07:30pm 24.3 23.1 15.0 56 5.6 NE 15 22 8 12 - - 0.0
21/07:00pm 24.9 24.2 14.4 52 6.2 NE 11 22 6 12 - - 0.0
21/06:30pm 25.4 24.0 14.5 51 6.5 E 15 28 8 15 - - 0.0
21/06:00pm 25.7 23.7 13.9 48 7.0 E 17 26 9 14 - - 0.0
21/05:30pm 25.9 24.5 15.6 53 6.3 E 17 28 9 15 - - 0.0
21/05:00pm 25.9 23.9 15.0 51 6.6 ESE 19 30 10 16 - - 0.0
21/04:30pm 25.6 23.2 13.8 48 7.0 E 19 28 10 15 - - 0.0
21/04:00pm 25.3 23.3 13.8 49 6.8 E 17 28 9 15 - - 0.0
21/03:30pm 26.0 23.9 13.5 46 7.3 ESE 17 24 9 13 - - 0.0
21/03:00pm 26.1 24.1 13.9 47 7.2 ESE 17 24 9 13 - - 0.0
21/02:30pm 25.3 23.6 13.5 48 6.9 E 15 24 8 13 - - 0.0
21/02:00pm 25.1 23.0 13.6 49 6.7 ESE 17 26 9 14 - - 0.0
21/01:30pm 26.1 24.1 13.9 47 7.2 ESE 17 24 9 13 - - 0.0
21/01:00pm 25.9 24.7 14.1 48 7.0 SE 13 20 7 11 - - 0.0
21/12:30pm 25.8 24.5 13.6 47 7.2 E 13 20 7 11 - - 0.0
21/12:00pm 25.8 24.7 13.0 45 7.5 ESE 11 22 6 12 - - 0.0
21/11:30am 25.0 24.3 11.9 44 7.5 S 7 20 4 11 - - 0.0
21/11:00am 24.5 23.4 10.8 42 7.6 S 7 11 4 6 - - 0.0
21/10:30am 23.2 21.6 8.9 40 7.7 SSW 7 13 4 7 - - 0.0
21/10:00am 22.2 21.5 8.7 42 7.2 W 2 7 1 4 - - 0.0
21/09:30am 20.9 19.4 8.5 45 6.5 W 6 9 3 5 - - 0.0
21/09:00am 20.3 19.3 8.9 48 6.0 WNW 4 9 2 5 - - 0.0
21/08:30am 18.5 16.9 7.9 50 5.4 WNW 6 11 3 6 - - 0.0
21/08:00am 17.9 15.9 7.3 50 5.3 WNW 7 11 4 6 - - 0.0
21/07:30am 16.5 15.5 8.7 60 4.0 W 4 9 2 5 - - 0.0
21/07:00am 15.4 13.7 7.7 60 3.8 NW 6 9 3 5 - - 0.0
21/06:30am 14.5 13.9 9.1 70 2.8 NW 2 7 1 4 - - 0.0
21/06:00am 14.9 14.4 7.9 63 3.5 CALM 0 6 0 3 - - 0.0
21/05:30am 14.6 14.9 11.0 79 1.9 CALM 0 6 0 3 - - 0.0
21/05:00am 14.9 14.6 8.8 67 3.1 CALM 0 0 0 0 - - 0.0
21/04:30am 15.3 14.6 7.1 58 4.0 CALM 0 0 0 0 - - 0.0
21/04:00am 15.3 14.9 8.3 63 3.5 CALM 0 6 0 3 - - 0.0
21/03:30am 15.4 14.0 8.9 65 3.3 W 6 9 3 5 - - 0.0
21/03:00am 15.6 16.2 12.0 79 2.0 CALM 0 0 0 0 - - 0.0
21/02:30am 15.5 16.3 12.4 82 1.7 CALM 0 0 0 0 - - 0.0
21/02:00am 15.8 16.6 12.5 81 1.8 CALM 0 0 0 0 - - 0.0
21/01:30am 15.9 17.0 13.4 85 1.4 CALM 0 0 0 0 - - 0.0
21/01:00am 16.3 17.3 13.2 82 1.7 CALM 0 0 0 0 - - 0.0
21/12:30am 16.8 17.6 12.7 77 2.3 CALM 0 6 0 3 - - 0.0
21/12:00am 16.8 17.5 13.3 80 2.0 SSW 2 9 1 5 - - 0.0
 
Date/Time
EDT
Temp
°C
App
Temp
°C
Dew
Point
°C
Rel
Hum
%
Delta-T
°C
Wind Press
QNH
hPa
Press
MSL
hPa
Rain since
9am
mm
Dir  Spd
km/h
Gust
km/h
Spd
kts
Gust
kts
20/11:30pm 17.0 17.5 12.7 76 2.4 N 2 6 1 3 - - 0.0
20/11:00pm 17.8 18.0 12.0 69 3.2 NE 2 11 1 6 - - 0.0
20/10:30pm 17.5 18.4 12.8 74 2.6 CALM 0 0 0 0 - - 0.0
20/10:00pm 18.4 19.1 12.2 67 3.4 CALM 0 0 0 0 - - 0.0
20/09:30pm 20.4 20.4 11.1 55 5.1 NNE 2 9 1 5 - - 0.0
20/09:00pm 21.8 20.5 9.3 45 6.7 NE 6 11 3 6 - - 0.0
20/08:30pm 22.4 21.1 9.2 43 7.1 E 6 11 3 6 - - 0.0
20/08:00pm 22.9 21.4 8.6 40 7.6 ENE 6 11 3 6 - - 0.0
20/07:30pm 23.6 21.4 7.7 36 8.3 ENE 9 15 5 8 - - 0.0
20/07:00pm 24.1 21.1 7.7 35 8.6 E 13 17 7 9 - - 0.0
20/06:30pm 24.9 22.0 8.0 34 9.0 E 13 22 7 12 - - 0.0
20/06:00pm 25.2 21.0 7.3 32 9.4 E 19 28 10 15 - - 0.0

Latest Capital City Observations: Canberra | Sydney | Melbourne | Brisbane | Adelaide | Perth | Hobart | Darwin

Other Formats:

Comma delimited format used in spreadsheet applications
http://www.bom.gov.au/fwo/IDN60901/IDN60901.95765.axf

JavaScript Object Notation format (JSON) in row-major order
http://www.bom.gov.au/fwo/IDN60901/IDN60901.95765.json